createdAt,value
2022-09-14T00:00:17.225Z,95200.09
2022-09-14T00:02:47.247Z,95199.00
2022-09-14T00:05:15.961Z,95198.34
2022-09-14T00:07:44.700Z,95192.63
2022-09-14T00:10:13.006Z,95188.19
2022-09-14T00:12:42.571Z,95182.16
2022-09-14T00:15:16.068Z,95188.19
2022-09-14T00:17:48.261Z,95182.34
2022-09-14T00:20:16.706Z,95168.16
2022-09-14T00:22:45.675Z,95151.34
2022-09-14T00:25:15.090Z,95155.00
2022-09-14T00:27:43.315Z,95143.72
2022-09-14T00:30:12.646Z,95124.38
2022-09-14T00:32:40.916Z,95104.84
2022-09-14T00:35:11.243Z,95092.00
2022-09-14T00:37:39.949Z,95082.19
2022-09-14T00:40:11.093Z,95086.16
2022-09-14T00:42:39.952Z,95094.94
2022-09-14T00:45:14.362Z,95097.47
2022-09-14T00:47:44.878Z,95106.34
2022-09-14T00:50:17.021Z,95114.28
2022-09-14T00:52:48.988Z,95114.16
2022-09-14T00:55:18.617Z,95110.34
2022-09-14T00:57:51.107Z,95124.66
2022-09-14T01:00:22.233Z,95125.88
2022-09-14T01:02:51.879Z,95127.16
2022-09-14T01:05:27.982Z,95125.25
2022-09-14T01:08:09.406Z,95128.44
2022-09-14T01:10:54.463Z,95132.56
2022-09-14T01:13:30.668Z,95131.75
2022-09-14T01:16:04.087Z,95128.59
2022-09-14T01:18:36.212Z,95107.78
2022-09-14T01:21:09.795Z,95114.28
2022-09-14T01:23:42.611Z,95117.47
2022-09-14T01:26:54.264Z,95105.75
2022-09-14T01:29:25.897Z,95100.34
2022-09-14T01:31:55.761Z,95107.66
2022-09-14T01:34:28.358Z,95100.78
2022-09-14T01:36:59.037Z,95104.00
2022-09-14T01:39:27.374Z,95102.28
2022-09-14T01:41:55.972Z,95098.00
2022-09-14T01:44:27.067Z,95098.31
2022-09-14T01:46:56.199Z,95097.03
2022-09-14T01:49:26.133Z,95101.63
2022-09-14T01:51:57.817Z,95101.94
2022-09-14T01:54:27.372Z,95108.94
2022-09-14T01:56:58.380Z,95098.47
2022-09-14T01:59:29.687Z,95101.16
2022-09-14T02:02:06.015Z,95092.13
2022-09-14T02:04:38.036Z,95091.66
2022-09-14T02:07:07.256Z,95084.19
2022-09-14T02:09:36.816Z,95087.25
2022-09-14T02:12:09.169Z,95085.31
2022-09-14T02:14:39.829Z,95087.06
2022-09-14T02:17:09.957Z,95077.38
2022-09-14T02:19:41.785Z,95083.88
2022-09-14T02:22:11.037Z,95075.47
2022-09-14T02:24:40.229Z,95077.38
2022-09-14T02:27:09.103Z,95064.19
2022-09-14T02:29:39.501Z,95073.75
2022-09-14T02:32:18.886Z,95065.50
2022-09-14T02:34:54.279Z,95058.03
2022-09-14T02:37:25.530Z,95059.94
2022-09-14T02:39:58.252Z,95052.00
2022-09-14T02:42:31.095Z,95049.13
2022-09-14T02:45:05.370Z,95045.97
2022-09-14T02:47:36.899Z,95047.53
2022-09-14T02:50:10.507Z,95045.19
2022-09-14T02:52:48.523Z,95036.59
2022-09-14T02:55:19.437Z,95028.03
2022-09-14T02:58:00.934Z,95034.22
2022-09-14T03:00:31.568Z,95031.06
2022-09-14T03:03:00.298Z,95025.97
2022-09-14T03:05:28.751Z,95031.72
2022-09-14T03:07:57.462Z,95036.75
2022-09-14T03:10:30.870Z,95029.78
2022-09-14T03:12:59.302Z,95027.88
2022-09-14T03:15:27.601Z,95022.47
2022-09-14T03:17:57.867Z,95021.69
2022-09-14T03:20:26.934Z,95014.75
2022-09-14T03:22:55.230Z,95014.25
2022-09-14T03:25:24.204Z,95012.66
2022-09-14T03:27:53.228Z,95018.53
2022-09-14T03:30:24.226Z,95009.97
2022-09-14T03:32:52.538Z,95006.47
2022-09-14T03:35:23.827Z,95007.28
2022-09-14T03:37:52.168Z,95001.09
2022-09-14T03:40:22.211Z,94998.88
2022-09-14T03:42:51.771Z,95003.16
2022-09-14T03:45:20.365Z,94995.06
2022-09-14T03:47:48.863Z,94992.69
2022-09-14T03:50:17.743Z,94995.69
2022-09-14T03:52:47.822Z,94994.09
2022-09-14T03:55:17.076Z,94990.13
2022-09-14T03:57:45.738Z,94990.13
2022-09-14T04:00:14.677Z,94990.47
2022-09-14T04:02:43.088Z,94989.34
2022-09-14T04:05:13.205Z,94987.00
2022-09-14T04:07:45.399Z,94982.84
2022-09-14T04:10:16.281Z,94974.75
2022-09-14T04:12:46.124Z,94967.78
2022-09-14T04:15:14.655Z,94966.97
2022-09-14T04:17:44.332Z,94965.06
2022-09-14T04:20:15.335Z,94972.06
2022-09-14T04:22:43.736Z,94964.75
2022-09-14T04:25:12.512Z,94963.31
2022-09-14T04:27:42.335Z,94966.19
2022-09-14T04:30:11.659Z,94967.41
2022-09-14T04:32:40.192Z,94973.59
2022-09-14T04:35:09.459Z,94979.78
2022-09-14T04:37:38.910Z,94976.47
2022-09-14T04:40:10.247Z,94974.56
2022-09-14T04:42:40.206Z,94974.56
2022-09-14T04:45:11.788Z,94986.16
2022-09-14T04:47:41.878Z,94995.03
2022-09-14T04:50:13.549Z,94997.84
2022-09-14T04:52:44.153Z,94994.06
2022-09-14T04:55:15.986Z,94992.94
2022-09-14T04:57:44.581Z,94989.28
2022-09-14T05:00:15.755Z,94981.19
2022-09-14T05:02:44.473Z,94991.19
2022-09-14T05:05:14.193Z,94986.28
2022-09-14T05:07:43.989Z,94989.41
2022-09-14T05:10:12.305Z,94987.19
2022-09-14T05:12:41.967Z,94982.13
2022-09-14T05:15:13.973Z,94989.88
2022-09-14T05:17:44.449Z,94991.47
2022-09-14T05:20:13.739Z,94986.06
2022-09-14T05:22:42.415Z,94983.06
2022-09-14T05:25:14.513Z,94980.03
2022-09-14T05:27:43.296Z,94972.75
2022-09-14T05:30:14.059Z,94971.94
2022-09-14T05:32:44.575Z,94964.66
2022-09-14T05:35:14.127Z,94971.16
2022-09-14T05:37:43.150Z,94968.47
2022-09-14T05:40:13.226Z,94958.47
2022-09-14T05:42:41.840Z,94952.25
2022-09-14T05:45:10.917Z,94956.56
2022-09-14T05:47:39.439Z,94960.84
2022-09-14T05:50:10.612Z,94953.50
2022-09-14T05:52:39.285Z,94958.56
2022-09-14T05:55:08.143Z,94957.00
2022-09-14T05:57:36.734Z,94953.06
2022-09-14T06:00:06.614Z,94950.03
2022-09-14T06:02:41.655Z,94956.19
2022-09-14T06:05:11.939Z,94953.97
2022-09-14T06:07:40.520Z,94955.88
2022-09-14T06:10:09.620Z,94947.00
2022-09-14T06:12:37.906Z,94946.66
2022-09-14T06:15:07.350Z,94952.53
2022-09-14T06:17:36.255Z,94945.25
2022-09-14T06:20:05.456Z,94946.03
2022-09-14T06:22:35.746Z,94941.09
2022-09-14T06:25:06.292Z,94940.31
2022-09-14T06:27:36.423Z,94927.59
2022-09-14T06:30:05.153Z,94930.00
2022-09-14T06:32:36.284Z,94931.53
2022-09-14T06:35:08.175Z,94931.53
2022-09-14T06:37:40.249Z,94932.00
2022-09-14T06:40:09.139Z,94930.91
2022-09-14T06:42:37.462Z,94931.69
2022-09-14T06:45:07.233Z,94931.69
2022-09-14T06:47:35.753Z,94931.69
2022-09-14T06:50:04.106Z,94925.19
2022-09-14T06:52:33.933Z,94932.50
2022-09-14T06:55:04.076Z,94934.41
2022-09-14T06:57:32.729Z,94929.47
2022-09-14T07:00:01.610Z,94938.69
2022-09-14T07:02:30.547Z,94949.16
2022-09-14T07:05:00.198Z,94952.66
2022-09-14T07:07:28.592Z,94955.34
2022-09-14T07:09:57.914Z,94960.91
2022-09-14T07:12:27.775Z,94954.41
2022-09-14T07:14:56.760Z,94950.91
2022-09-14T07:17:25.968Z,94951.69
2022-09-14T07:19:54.339Z,94951.69
2022-09-14T07:22:23.209Z,94948.69
2022-09-14T07:24:52.216Z,94948.84
2022-09-14T07:27:21.441Z,94946.56
2022-09-14T07:29:52.539Z,94954.03
2022-09-14T07:32:20.943Z,94952.59
2022-09-14T07:34:50.182Z,94948.78
2022-09-14T07:37:19.773Z,94956.56
2022-09-14T07:39:48.011Z,94953.88
2022-09-14T07:42:17.216Z,94960.81
2022-09-14T07:44:45.693Z,94956.69
2022-09-14T07:47:15.354Z,94947.63
2022-09-14T07:49:44.218Z,94949.31
2022-09-14T07:52:12.914Z,94945.66
2022-09-14T07:54:45.000Z,94945.75
2022-09-14T07:57:14.174Z,94949.72
2022-09-14T07:59:42.395Z,94946.72
2022-09-14T08:02:12.042Z,94951.91
2022-09-14T08:04:42.618Z,94944.72
2022-09-14T08:07:11.106Z,94949.50
2022-09-14T08:09:39.715Z,94944.72
2022-09-14T08:12:07.988Z,94943.63
2022-09-14T08:14:38.832Z,94941.38
2022-09-14T08:17:07.172Z,94944.69
2022-09-14T08:19:35.837Z,94948.19
2022-09-14T08:22:05.898Z,94941.19
2022-09-14T08:24:34.263Z,94945.03
2022-09-14T08:27:02.452Z,94933.91
2022-09-14T08:29:31.312Z,94934.50
2022-09-14T08:32:07.388Z,94934.94
2022-09-14T08:34:36.391Z,94931.59
2022-09-14T08:37:06.308Z,94925.84
2022-09-14T08:39:34.755Z,94928.56
2022-09-14T08:42:03.756Z,94941.84
2022-09-14T08:44:32.603Z,94928.47
2022-09-14T08:47:02.978Z,94931.75
2022-09-14T08:49:47.462Z,94925.84
2022-09-14T08:52:27.606Z,94931.63
2022-09-14T08:54:56.592Z,94925.66
2022-09-14T08:57:29.260Z,94924.13
2022-09-14T09:00:04.229Z,94919.88
2022-09-14T09:02:43.813Z,94916.41
2022-09-14T09:05:24.994Z,94918.66
2022-09-14T09:07:56.932Z,94914.03
2022-09-14T09:10:25.597Z,94914.38
2022-09-14T09:12:54.872Z,94910.56
2022-09-14T09:15:24.273Z,94914.03
2022-09-14T09:17:55.019Z,94914.59
2022-09-14T09:20:25.449Z,94910.00
2022-09-14T09:22:59.269Z,94911.25
2022-09-14T09:25:30.224Z,94910.56
2022-09-14T09:28:00.841Z,94909.91
2022-09-14T09:30:29.878Z,94911.25
2022-09-14T09:32:58.280Z,94904.34
2022-09-14T09:35:41.527Z,94907.75
2022-09-14T09:38:24.873Z,94900.81
2022-09-14T09:40:55.894Z,94898.31
2022-09-14T09:43:47.876Z,94900.00
2022-09-14T09:46:15.526Z,94904.09
2022-09-14T09:48:45.090Z,94904.06
2022-09-14T09:51:15.359Z,94908.47
2022-09-14T09:53:50.265Z,94910.03
2022-09-14T09:56:20.111Z,94913.63
2022-09-14T09:58:51.855Z,94919.41
2022-09-14T10:01:23.412Z,94920.44
2022-09-14T10:04:07.309Z,94917.72
2022-09-14T10:06:43.113Z,94915.34
2022-09-14T10:09:17.263Z,94908.25
2022-09-14T10:11:45.528Z,94906.44
2022-09-14T10:14:25.494Z,94899.09
2022-09-14T10:16:54.143Z,94902.50
2022-09-14T10:19:24.763Z,94903.63
2022-09-14T10:22:21.843Z,94896.19
2022-09-14T10:25:05.145Z,94903.50
2022-09-14T10:27:41.924Z,94897.53
2022-09-14T10:30:15.920Z,94899.13
2022-09-14T10:32:50.743Z,94894.47
2022-09-14T10:35:21.385Z,94888.63
2022-09-14T10:38:00.361Z,94898.44
2022-09-14T10:40:34.391Z,94894.25
2022-09-14T10:43:10.587Z,94883.63
2022-09-14T10:45:41.278Z,94889.84
2022-09-14T10:48:40.880Z,94891.00
2022-09-14T10:51:27.519Z,94905.53
2022-09-14T10:53:57.142Z,94905.53
2022-09-14T10:56:28.675Z,94898.22
2022-09-14T10:59:24.957Z,94910.16
2022-09-14T11:02:07.191Z,94904.84
2022-09-14T11:04:48.346Z,94903.59
2022-09-14T11:07:19.033Z,94890.78
2022-09-14T11:09:51.548Z,94891.91
2022-09-14T11:12:25.201Z,94898.09
2022-09-14T11:15:00.301Z,94897.97
2022-09-14T11:17:48.695Z,94885.69
2022-09-14T11:20:25.789Z,94869.13
2022-09-14T11:22:59.694Z,94872.84
2022-09-14T11:25:31.344Z,94873.38
2022-09-14T11:28:02.722Z,94864.69
2022-09-14T11:30:34.480Z,94864.16
2022-09-14T11:33:04.615Z,94869.91
2022-09-14T11:35:35.814Z,94865.94
2022-09-14T11:38:09.138Z,94869.66
2022-09-14T11:40:48.439Z,94871.09
2022-09-14T11:43:20.724Z,94860.06
2022-09-14T11:45:57.471Z,94854.84
2022-09-14T11:48:42.393Z,94861.50
2022-09-14T11:51:15.480Z,94862.81
2022-09-14T11:53:44.488Z,94851.25
2022-09-14T11:56:24.576Z,94851.13
2022-09-14T11:59:00.933Z,94852.53
2022-09-14T12:01:36.492Z,94841.78
2022-09-14T12:04:15.302Z,94848.22
2022-09-14T12:06:57.960Z,94840.22
2022-09-14T12:09:54.983Z,94844.06
2022-09-14T12:12:39.593Z,94837.84
2022-09-14T12:15:22.930Z,94836.63
2022-09-14T12:17:52.104Z,94842.25
2022-09-14T12:20:32.550Z,94843.03
2022-09-14T12:23:21.796Z,94853.44
2022-09-14T12:26:10.374Z,94838.31
2022-09-14T12:28:41.602Z,94840.81
2022-09-14T12:31:33.298Z,94837.75
2022-09-14T12:34:19.503Z,94838.97
2022-09-14T12:37:21.784Z,94835.94
2022-09-14T12:40:28.023Z,94824.63
2022-09-14T12:43:00.874Z,94829.72
2022-09-14T12:45:51.876Z,94831.41
2022-09-14T12:48:59.049Z,94828.47
2022-09-14T12:51:36.848Z,94823.81
2022-09-14T12:54:16.827Z,94812.69
2022-09-14T12:56:51.260Z,94804.94
2022-09-14T12:59:22.966Z,94802.66
2022-09-14T13:01:53.608Z,94793.94
2022-09-14T13:04:26.467Z,94794.72
2022-09-14T13:06:55.592Z,94798.22
2022-09-14T13:09:25.060Z,94793.59
2022-09-14T13:11:55.840Z,94794.13
2022-09-14T13:14:24.877Z,94794.41
2022-09-14T13:16:53.220Z,94793.28
2022-09-14T13:19:25.142Z,94805.00
2022-09-14T13:21:54.783Z,94804.28
2022-09-14T13:24:29.962Z,94802.56
2022-09-14T13:26:59.718Z,94809.19
2022-09-14T13:29:28.315Z,94811.50
2022-09-14T13:32:03.400Z,94805.44
2022-09-14T13:34:36.101Z,94805.41
2022-09-14T13:37:06.379Z,94811.81
2022-09-14T13:39:36.182Z,94808.81
2022-09-14T13:42:04.848Z,94809.75
2022-09-14T13:44:34.898Z,94815.41
2022-09-14T13:47:04.483Z,94817.59
2022-09-14T13:49:34.757Z,94817.28
2022-09-14T13:52:21.025Z,94821.44
2022-09-14T13:54:49.571Z,94816.63
2022-09-14T13:57:20.841Z,94809.44
2022-09-14T14:00:19.672Z,94813.16
2022-09-14T14:02:49.248Z,94810.69
2022-09-14T14:05:28.033Z,94811.28
2022-09-14T14:07:57.477Z,94814.22
2022-09-14T14:10:30.317Z,94811.31
2022-09-14T14:12:58.831Z,94806.13
2022-09-14T14:15:38.136Z,94811.66
2022-09-14T14:18:37.623Z,94807.28
2022-09-14T14:21:18.290Z,94812.03
2022-09-14T14:24:11.777Z,94816.00
2022-09-14T14:26:39.244Z,94799.63
2022-09-14T14:29:11.283Z,94784.88
2022-09-14T14:31:40.084Z,94784.78
2022-09-14T14:34:13.348Z,94779.69
2022-09-14T14:36:51.351Z,94779.69
2022-09-14T14:39:20.743Z,94775.75
2022-09-14T14:41:49.493Z,94773.81
2022-09-14T14:44:22.003Z,94774.91
2022-09-14T14:46:50.545Z,94775.41
2022-09-14T14:49:20.490Z,94768.09
2022-09-14T14:51:50.331Z,94771.78
2022-09-14T14:54:18.947Z,94768.06
2022-09-14T14:56:47.623Z,94774.47
2022-09-14T14:59:30.054Z,94763.78
2022-09-14T15:02:01.007Z,94763.19
2022-09-14T15:04:30.467Z,94767.47
2022-09-14T15:07:03.469Z,94764.31
2022-09-14T15:09:32.585Z,94762.41
2022-09-14T15:12:01.006Z,94753.03
2022-09-14T15:14:33.461Z,94743.25
2022-09-14T15:17:07.147Z,94734.34
2022-09-14T15:19:38.176Z,94737.25
2022-09-14T15:22:08.388Z,94739.09
2022-09-14T15:24:38.019Z,94743.25
2022-09-14T15:27:06.477Z,94746.19
2022-09-14T15:29:36.127Z,94746.97
2022-09-14T15:32:07.008Z,94744.53
2022-09-14T15:34:36.355Z,94748.44
2022-09-14T15:37:05.037Z,94744.94
2022-09-14T15:39:36.474Z,94742.81
2022-09-14T15:42:06.955Z,94737.75
2022-09-14T15:44:35.837Z,94729.19
2022-09-14T15:47:07.200Z,94731.09
2022-09-14T15:49:35.950Z,94726.00
2022-09-14T15:52:04.997Z,94732.13
2022-09-14T15:54:37.262Z,94744.84
2022-09-14T15:57:07.254Z,94737.09
2022-09-14T15:59:35.622Z,94735.03
2022-09-14T16:02:03.944Z,94733.00
2022-09-14T16:04:36.516Z,94729.50
2022-09-14T16:07:09.608Z,94724.81
2022-09-14T16:09:49.888Z,94729.09
2022-09-14T16:12:21.228Z,94721.63
2022-09-14T16:14:50.312Z,94719.72
2022-09-14T16:17:18.737Z,94713.06
2022-09-14T16:19:49.212Z,94714.97
2022-09-14T16:22:18.190Z,94714.53
2022-09-14T16:24:52.104Z,94708.69
2022-09-14T16:27:24.620Z,94707.91
2022-09-14T16:29:53.763Z,94704.28
2022-09-14T16:32:22.169Z,94708.13
2022-09-14T16:34:51.161Z,94700.69
2022-09-14T16:37:19.574Z,94698.66
2022-09-14T16:39:51.429Z,94693.13
2022-09-14T16:42:20.440Z,94707.78
2022-09-14T16:44:49.325Z,94697.28
2022-09-14T16:47:25.458Z,94698.09
2022-09-14T16:50:04.465Z,94686.84
2022-09-14T16:52:38.422Z,94680.66
2022-09-14T16:55:09.332Z,94690.66
2022-09-14T16:57:39.162Z,94678.59
2022-09-14T17:00:11.567Z,94680.19
2022-09-14T17:02:41.547Z,94682.44
2022-09-14T17:05:10.730Z,94673.53
2022-09-14T17:07:39.975Z,94673.53
2022-09-14T17:10:10.841Z,94672.41
2022-09-14T17:12:39.871Z,94668.13
2022-09-14T17:15:15.035Z,94655.75
2022-09-14T17:17:43.353Z,94647.97
2022-09-14T17:20:13.600Z,94646.06
2022-09-14T17:22:42.345Z,94637.50
2022-09-14T17:25:16.846Z,94647.16
2022-09-14T17:27:46.242Z,94646.06
2022-09-14T17:30:15.515Z,94650.00
2022-09-14T17:32:45.260Z,94639.84
2022-09-14T17:35:13.937Z,94644.13
2022-09-14T17:37:42.473Z,94634.81
2022-09-14T17:40:13.913Z,94635.94
2022-09-14T17:42:43.091Z,94639.75
2022-09-14T17:45:12.384Z,94628.94
2022-09-14T17:47:40.987Z,94626.91
2022-09-14T17:50:10.999Z,94630.75
2022-09-14T17:52:40.204Z,94627.72
2022-09-14T17:55:09.272Z,94620.72
2022-09-14T17:57:40.333Z,94619.16
2022-09-14T18:00:11.112Z,94616.44
2022-09-14T18:02:39.744Z,94621.84
2022-09-14T18:05:08.510Z,94623.44
2022-09-14T18:07:36.883Z,94625.00
2022-09-14T18:10:06.347Z,94619.59
2022-09-14T18:12:36.455Z,94621.50
2022-09-14T18:15:07.412Z,94621.19
2022-09-14T18:17:35.728Z,94618.81
2022-09-14T18:20:04.046Z,94616.91
2022-09-14T18:22:32.918Z,94615.78
2022-09-14T18:25:02.102Z,94621.97
2022-09-14T18:27:31.268Z,94623.88
2022-09-14T18:30:02.123Z,94626.59
2022-09-14T18:32:32.185Z,94626.72
2022-09-14T18:35:01.140Z,94624.66
2022-09-14T18:37:32.545Z,94634.81
2022-09-14T18:40:01.449Z,94627.03
2022-09-14T18:42:30.750Z,94628.94
2022-09-14T18:44:59.053Z,94634.81
2022-09-14T18:47:28.338Z,94630.88
2022-09-14T18:49:59.087Z,94638.97
2022-09-14T18:52:27.703Z,94639.75
2022-09-14T18:54:56.764Z,94637.84
2022-09-14T18:57:25.402Z,94643.72
2022-09-14T18:59:53.815Z,94641.00
2022-09-14T19:02:22.423Z,94653.72
2022-09-14T19:04:51.355Z,94644.03
2022-09-14T19:07:22.505Z,94655.66
2022-09-14T19:09:51.875Z,94644.03
2022-09-14T19:12:21.515Z,94649.78
2022-09-14T19:14:50.083Z,94647.41
2022-09-14T19:17:18.928Z,94649.78
2022-09-14T19:19:53.689Z,94650.56
2022-09-14T19:22:23.948Z,94649.78
2022-09-14T19:24:52.682Z,94654.06
2022-09-14T19:27:22.602Z,94645.16
2022-09-14T19:29:53.701Z,94650.56
2022-09-14T19:32:23.249Z,94648.53
2022-09-14T19:34:54.566Z,94653.94
2022-09-14T19:37:26.497Z,94656.19
2022-09-14T19:40:01.301Z,94653.50
2022-09-14T19:42:31.138Z,94659.22
2022-09-14T19:44:59.495Z,94651.56
2022-09-14T19:47:30.340Z,94653.94
2022-09-14T19:49:59.301Z,94651.25
2022-09-14T19:52:32.327Z,94650.13
2022-09-14T19:55:05.015Z,94648.19
2022-09-14T19:57:39.314Z,94649.00
2022-09-14T20:00:15.171Z,94650.25
2022-09-14T20:02:49.380Z,94654.53
2022-09-14T20:05:18.248Z,94646.41
2022-09-14T20:07:47.957Z,94641.09
2022-09-14T20:10:18.314Z,94643.00
2022-09-14T20:12:47.279Z,94645.72
2022-09-14T20:15:18.469Z,94643.81
2022-09-14T20:17:46.792Z,94639.19
2022-09-14T20:20:17.360Z,94647.28
2022-09-14T20:22:47.777Z,94650.78
2022-09-14T20:25:16.228Z,94649.22
2022-09-14T20:27:44.508Z,94652.69
2022-09-14T20:30:14.229Z,94653.50
2022-09-14T20:32:43.537Z,94653.16
2022-09-14T20:35:12.175Z,94660.81
2022-09-14T20:37:40.665Z,94660.34
2022-09-14T20:40:15.064Z,94661.47
2022-09-14T20:42:44.782Z,94667.25
2022-09-14T20:45:15.314Z,94665.22
2022-09-14T20:47:44.734Z,94668.25
2022-09-14T20:50:14.341Z,94663.88
2022-09-14T20:52:43.364Z,94668.91
2022-09-14T20:55:13.194Z,94657.22
2022-09-14T20:57:44.026Z,94649.09
2022-09-14T21:00:16.737Z,94634.69
2022-09-14T21:02:45.663Z,94625.34
2022-09-14T21:05:14.133Z,94616.78
2022-09-14T21:07:56.009Z,94610.47
2022-09-14T21:10:30.269Z,94610.47
2022-09-14T21:13:01.846Z,94617.34
2022-09-14T21:15:33.403Z,94636.13
2022-09-14T21:18:02.060Z,94635.66
2022-09-14T21:20:33.961Z,94641.06
2022-09-14T21:23:02.670Z,94629.81
2022-09-14T21:25:37.716Z,94635.22
2022-09-14T21:28:06.332Z,94637.91
2022-09-14T21:30:34.837Z,94643.97
2022-09-14T21:33:03.580Z,94638.13
2022-09-14T21:35:33.750Z,94636.22
2022-09-14T21:38:02.188Z,94638.94
2022-09-14T21:40:32.753Z,94644.34
2022-09-14T21:43:01.526Z,94649.75
2022-09-14T21:45:29.919Z,94656.25
2022-09-14T21:47:59.845Z,94653.66
2022-09-14T21:50:28.835Z,94664.66
2022-09-14T21:52:57.233Z,94671.50
2022-09-14T21:55:25.963Z,94682.72
2022-09-14T21:57:56.349Z,94682.50
2022-09-14T22:00:30.117Z,94670.22
2022-09-14T22:03:00.789Z,94670.19
2022-09-14T22:05:32.003Z,94688.16
2022-09-14T22:08:01.379Z,94701.56
2022-09-14T22:10:30.070Z,94695.56
2022-09-14T22:13:01.441Z,94701.13
2022-09-14T22:15:35.855Z,94704.97
2022-09-14T22:18:04.321Z,94707.19
2022-09-14T22:20:32.623Z,94705.78
2022-09-14T22:23:01.830Z,94710.59
2022-09-14T22:25:33.122Z,94715.66
2022-09-14T22:28:03.468Z,94726.31
2022-09-14T22:30:32.027Z,94733.47
2022-09-14T22:33:00.585Z,94736.03
2022-09-14T22:35:29.247Z,94726.88
2022-09-14T22:37:58.510Z,94734.47
2022-09-14T22:40:28.874Z,94724.03
2022-09-14T22:43:01.238Z,94729.28
2022-09-14T22:45:31.343Z,94734.53
2022-09-14T22:48:03.368Z,94730.44
2022-09-14T22:50:32.147Z,94736.16
2022-09-14T22:53:01.077Z,94728.06
2022-09-14T22:55:29.587Z,94733.78
2022-09-14T22:57:58.399Z,94736.31
2022-09-14T23:00:27.330Z,94736.00
2022-09-14T23:02:57.495Z,94747.09
2022-09-14T23:05:26.650Z,94745.97
2022-09-14T23:07:55.023Z,94763.25
2022-09-14T23:10:24.756Z,94757.75
2022-09-14T23:12:53.126Z,94762.03
2022-09-14T23:15:21.530Z,94761.72
2022-09-14T23:17:52.223Z,94772.34
2022-09-14T23:20:22.390Z,94766.22
2022-09-14T23:22:50.778Z,94772.03
2022-09-14T23:25:20.082Z,94770.31
2022-09-14T23:27:50.925Z,94771.75
2022-09-14T23:30:19.591Z,94769.53
2022-09-14T23:32:48.227Z,94775.72
2022-09-14T23:35:17.066Z,94775.72
2022-09-14T23:37:47.064Z,94786.78
2022-09-14T23:40:15.617Z,94791.06
2022-09-14T23:42:44.057Z,94779.81
2022-09-14T23:45:13.434Z,94778.56
2022-09-14T23:47:46.117Z,94785.84
2022-09-14T23:50:16.341Z,94788.72
2022-09-14T23:52:45.514Z,94789.03
2022-09-14T23:55:18.517Z,94779.84
2022-09-14T23:57:52.901Z,94778.56
